Observations for MILDENHALL RAF, United Kingdom (EGUN)

EGUN 240857Z COR VRB03KT 9999 FEW150 BKN190 25/22 A2995 RMK AO2A SLP145 T02510224 52004 $ COR 0857  
EGUN 240857Z VRB03KT 9999 RA FEW150 BKN190 25/22 A2995 RMK AO2A SLP145 T02510224 52004 $
EGUN 240756Z 14005KT 9999 CLR 24/22 A2994 RMK AO2A SLP142 T02370221 $   
EGUN 240756Z 14005KT 9999 CLR 24/22 A2994 RMK AO2A SLP142 T02370221 .
EGUN 240656Z COR 11005KT 9999 CLR 22/22 A2994 RMK AO2A SLP142 T02160216 $ COR 0735  
EGUN 240656Z 11005KT 9999 CLR 22/22 A2994 RMK AO2A RAB42E45 SLP142 P0000 T02160216 .
EGUN 240608Z 11004KT 9999 CLR 20/20 A2993 RMK SLP138 $
EGUN 240556Z 12003KT 9999 SCT120 19/19 A2993 RMK AO2A SLP138 T01940194 10194 20173 $
EGUN 240556Z 12003KT 9999 SCT120 19/19 A2993 RMK AO2A SLP138 T01940194 10194 20173 .
EGUN 240456Z 13006KT 9999 CLR 18/18 A2993 RMK AO2A SLPNO T01840184 $
EGUN 240456Z 13006KT 9999 CLR 18/18 A2993 RMK AO2A SLPNO T01840184 .
EGUN 240359Z 13009KT 9999 BKN120 18/17 A2993 RMK AO2A SLPNO RVRNO $ 
EGUN 240359Z 13009KT 9999 BKN120 18/17 A2993 RMK AO2A SLPNO RVRNO .
EGUN 240256Z 13007KT 9999 OVC130 18/18 A2993 RMK AO2A SLP138 T01810181 56015 $  
EGUN 240256Z 13007KT 9999 OVC130 18/18 A2993 RMK AO2A SLP138 T01810181 56015 .
EGUN 240156Z 12007KT 9999 SCT140 18/18 A2994 RMK AO2A SLP142 T01800180 $
EGUN 240156Z 12007KT 9999 SCT140 18/18 A2994 RMK AO2A SLP142 T01800180 .
EGUN 240056Z 12006KT 9999 FEW150 OVC170 18/18 A2995 RMK AO2A SLPNO T01770177 $  
EGUN 240056Z 12006KT 9999 FEW150 OVC170 18/18 A2995 RMK AO2A SLPNO T01770177 .
EGUN 232356Z 11005KT 9999 SCT050 BKN120 18/17 A2996 RMK AO2A SLPNO 6//// 10198 20180 402380097 RVRNO VISNO RWY11 $  
EGUN 232356Z 11005KT 9999 SCT050 BKN120 18/17 A2996 RMK AO2A SLPNO 6//// 10198 20180 402380097 RVRNO VISNO RWY11 .
EGUN 232256Z 11007KT 9999 SCT055 BKN130 18/18 A2998 RMK AO2A SLP155 T01810181 $ 
EGUN 232256Z 11007KT 9999 SCT055 BKN130 18/18 A2998 RMK AO2A SLP155 T01810181 .
EGUN 232156Z 09007KT 9999 FEW055 OVC130 18/18 A2998 RMK AO2A SLP155 T01810181 $ 
EGUN 232156Z 09007KT 9999 FEW055 OVC130 18/18 A2998 RMK AO2A SLP155 T01810181 .
EGUN 232056Z 08006KT 9999 BKN055 OVC140 18/18 A2999 RMK AO2A SLP159 60000 T01810178 58002 $ 
EGUN 232056Z 08006KT 9999 BKN055 OVC140 18/18 A2999 RMK AO2A SLP159 60000 T01810178 58002 .
EGUN 231956Z 05003KT 9999 OVC130 18/17 A3000 RMK AO2A SLP162 T01830170 $
EGUN 231956Z 05003KT 9999 OVC130 18/17 A3000 RMK AO2A SLP162 T01830170 .
EGUN 231856Z 08007KT 9999 SCT140 19/17 A3000 RMK AO2A SLP162 T01910165 $
EGUN 231856Z 08007KT 9999 SCT140 19/17 A3000 RMK AO2A SLP162 T01910165 .
EGUN 231837Z 08007KT 9999 -RA OVC130 19/16 A3000 RMK AO2A RAB32 SLP162 $
EGUN 231840Z 08007KT 9999 BKN130 19/16 A3000 RMK AO2A RAB32E40 SLP162 $
EGUN 231756Z 07009KT 9999 BKN120 20/16 A2999 RMK AO2A SLP159 6//// T01980164 10238 20198 $  
EGUN 231756Z 07009KT 9999 BKN120 20/16 A2999 RMK AO2A SLP159 6//// T01980164 10238 20198 .
EGUN 231656Z 08011KT 9999 FEW140 22/16 A3000 RMK AO2A SLP162 T02150162 $
EGUN 231656Z 08011KT 9999 FEW140 22/16 A3000 RMK AO2A SLP162 T02150162 .
EGUN 231556Z 08011KT 9999 SCT070 22/16 A3000 RMK AO2A SLP162 T02230161 $
EGUN 231556Z 08011KT 9999 SCT070 22/16 A3000 RMK AO2A SLP162 T02230161 .
EGUN 231456Z 07008KT 9999 BKN080 23/16 A3002 RMK AO2A SLP169 6//// T02280161 RVRNO VISNO RWY11 $
EGUN 231456Z 07008KT 9999 BKN080 23/16 A3002 RMK AO2A SLP169 6//// T02280161 RVRNO VISNO RWY11 .
EGUN 231356Z 08012KT 9999 FEW120 23/17 A3003 RMK AO2A SLP172 T02300165 $
EGUN 231356Z 08012KT 9999 FEW120 23/17 A3003 RMK AO2A SLP172 T02300165 .
EGUN 231256Z COR AUTO 09011KT 9999 FEW120 23/17 A3004 RMK AO2 RAE33RAB37E45 SLP176 P//// T02280166 $ COR 1312   
EGUN 231256Z AUTO 09011KT 9999 M 23/17 A3004 RMK AO2 RAE33RAB37E45 SLP176 P////T02280166 .
EGUN 231234Z AUTO 09009KT M M M M A3006 RMK AO2 RAE33 SLPNO ALSTG ESTMD RVRNO VISNO RWY29 $
EGUN 231237Z AUTO 09010KT M -RA M 23/16 A3004 RMK AO2 RAE33RAB37 PRESFR SLPNO RVRNO VISNO RWY29 $
EGUN 231156Z AUTO 10008KT 9999 -RA FEW090 FEW200 24/17 A3005 RMK AO2 SLP179 P0000 60000 7//// T02370167 10237 20143 57010 .
EGUN 231245Z AUTO 09011KT 9999 M 23/16 A3004 RMK AO2 RAE33RAB37E45 SLPNO $
EGUN 231156Z AUTO 10008KT 9999 -RA FEW090 FEW200 24/17 A3005 RMK AO2 SLP179 P0000 60000 7//// T02370167 10237 20143 57010 $ 
EGUN 231056Z AUTO 08008KT 9999 -RA FEW100 FEW120 SCT160 BKN190 BKN210 22/18 A3006 RMK AO2 RAB19E32RAB49 SLPNO P0000 T02160176 $ 
EGUN 231056Z AUTO 08008KT 9999 -RA FEW100 FEW120 SCT160 BKN190 BKN210 22/18 A3006 RMK AO2 RAB19E32RAB49 SLPNO P0000 T02160176 .
EGUN 231032Z AUTO 08007KT 9999 FEW120 SCT160 BKN190 21/17 A3007 RMK AO2 RAB19E32 SLPNO $
EGUN 231019Z AUTO 07008KT 9999 -RA M 21/17 A3007 RMK AO2 RAB19 SLPNO $
EGUN 230956Z AUTO 09007KT M M M M A3009 RMK AO2 RAB06E15 SLPNO ALSTG ESTMD P//// RVRNO VISNO RWY29 $
EGUN 231049Z AUTO 07009KT 9999 -RA FEW100 FEW130 SCT160 BKN180 21/18 A3007 RMK AO2 RAB19E32RAB49 SLPNO $
EGUN 230956Z COR AUTO 09007KT 9999 FEW055 FEW140 SCT190 20/18 A3008 RMK AO2 RAB06E15 SLPNO ALSTG ESTMD P//// RVRNO VISNO RWY29 $ COR 0958   
EGUN 230906Z AUTO 05005KT 9999 -RA FEW055 FEW160 SCT190 19/18 A3008 RMK AO2 RAB06 SLP189 $
EGUN 230915Z AUTO 08006KT 9999 FEW055 FEW140 SCT190 20/18 A3008 RMK AO2 RAB06E15 SLP189 $
EGUN 230856Z AUTO 07006KT 9999 FEW180 SCT200 19/18 A3008 RMK AO2 SLP189 T01900178 58000 $   
EGUN 230856Z AUTO 07006KT 9999 FEW180 SCT200 19/18 A3008 RMK AO2 SLP189 T01900178 58000 .